createdAt,value
2016-10-11T00:00:25.449Z,0
2016-10-11T00:01:36.026Z,0
2016-10-11T00:02:46.727Z,0
2016-10-11T00:03:57.275Z,0
2016-10-11T00:05:07.914Z,0
2016-10-11T00:06:18.503Z,0
2016-10-11T00:07:29.554Z,0
2016-10-11T00:08:40.314Z,0
2016-10-11T00:09:50.923Z,0
2016-10-11T00:11:01.565Z,0
2016-10-11T00:12:12.110Z,0
2016-10-11T00:13:22.759Z,0
2016-10-11T00:14:33.417Z,0
2016-10-11T00:15:44.122Z,0
2016-10-11T00:16:54.842Z,0
2016-10-11T00:18:05.423Z,0
2016-10-11T00:19:15.971Z,0
2016-10-11T00:20:26.821Z,0
2016-10-11T00:21:37.827Z,0
2016-10-11T00:22:48.600Z,0
2016-10-11T00:23:59.719Z,0
2016-10-11T00:25:10.539Z,0
2016-10-11T00:26:21.163Z,0
2016-10-11T00:27:31.735Z,0
2016-10-11T00:28:42.308Z,0
2016-10-11T00:29:52.866Z,0
2016-10-11T00:31:03.430Z,0
2016-10-11T00:32:14.163Z,0
2016-10-11T00:33:24.706Z,0
2016-10-11T00:34:35.279Z,0
2016-10-11T00:35:45.854Z,0
2016-10-11T00:36:56.380Z,0
2016-10-11T00:38:06.972Z,0
2016-10-11T00:39:17.553Z,0
2016-10-11T00:40:28.100Z,0
2016-10-11T00:41:38.643Z,0
2016-10-11T00:42:49.289Z,0
2016-10-11T00:43:59.812Z,0
2016-10-11T00:45:10.329Z,0
2016-10-11T00:46:20.903Z,0
2016-10-11T00:47:31.845Z,0
2016-10-11T00:48:42.799Z,0
2016-10-11T00:49:53.454Z,0
2016-10-11T00:51:04.022Z,0
2016-10-11T00:52:14.614Z,0
2016-10-11T00:53:25.137Z,0
2016-10-11T00:54:35.711Z,0
2016-10-11T00:55:46.461Z,0
2016-10-11T00:56:56.984Z,0
2016-10-11T00:58:07.563Z,0
2016-10-11T00:59:18.101Z,0
2016-10-11T01:00:28.650Z,0
2016-10-11T01:01:39.286Z,0
2016-10-11T01:02:49.802Z,0
2016-10-11T01:04:00.300Z,0
2016-10-11T01:05:10.860Z,0
2016-10-11T01:06:21.822Z,0
2016-10-11T01:07:32.354Z,0
2016-10-11T01:08:43.285Z,0
2016-10-11T01:09:53.822Z,0
2016-10-11T01:11:04.381Z,0
2016-10-11T01:12:14.950Z,0
2016-10-11T01:13:25.583Z,0
2016-10-11T01:14:36.125Z,0
2016-10-11T01:15:46.694Z,0
2016-10-11T01:16:57.224Z,0
2016-10-11T01:18:07.820Z,0
2016-10-11T01:19:18.614Z,0
2016-10-11T01:20:29.126Z,0
2016-10-11T01:21:40.113Z,0
2016-10-11T01:22:50.705Z,0
2016-10-11T01:24:01.741Z,0
2016-10-11T01:25:12.457Z,0
2016-10-11T01:26:23.051Z,0
2016-10-11T01:27:33.646Z,0
2016-10-11T01:28:44.197Z,0
2016-10-11T01:29:54.741Z,0
2016-10-11T01:31:05.380Z,0
2016-10-11T01:32:15.891Z,0
2016-10-11T01:33:26.424Z,0
2016-10-11T01:34:37.013Z,0
2016-10-11T01:35:47.575Z,0
2016-10-11T01:36:58.116Z,0
2016-10-11T01:38:09.133Z,0
2016-10-11T01:39:19.722Z,0
2016-10-11T01:40:30.313Z,0
2016-10-11T01:41:40.822Z,0
2016-10-11T01:42:51.885Z,0
2016-10-11T01:44:02.441Z,0
2016-10-11T01:45:13.007Z,0
2016-10-11T01:46:23.577Z,0
2016-10-11T01:47:34.145Z,0
2016-10-11T01:48:44.848Z,0
2016-10-11T01:49:55.362Z,0
2016-10-11T01:51:05.878Z,0
2016-10-11T01:52:16.389Z,0
2016-10-11T01:53:27.305Z,0
2016-10-11T01:54:37.928Z,0
2016-10-11T01:55:48.456Z,0
2016-10-11T01:56:58.986Z,0
2016-10-11T01:58:09.891Z,0
2016-10-11T01:59:20.394Z,0
2016-10-11T02:00:30.889Z,0
2016-10-11T02:01:41.381Z,0
2016-10-11T02:02:51.906Z,0
2016-10-11T02:04:02.412Z,0
2016-10-11T02:05:12.928Z,0
2016-10-11T02:06:23.552Z,0
2016-10-11T02:07:34.120Z,0
2016-10-11T02:08:44.639Z,0
2016-10-11T02:09:55.126Z,0
2016-10-11T02:11:05.666Z,0
2016-10-11T02:12:16.197Z,0
2016-10-11T02:13:26.681Z,0
2016-10-11T02:14:37.189Z,0
2016-10-11T02:15:47.693Z,0
2016-10-11T02:16:58.233Z,0
2016-10-11T02:18:08.864Z,0
2016-10-11T02:19:19.361Z,0
2016-10-11T02:20:29.903Z,0
2016-10-11T02:21:40.438Z,0
2016-10-11T02:22:50.965Z,0
2016-10-11T02:24:01.594Z,0
2016-10-11T02:25:12.096Z,0
2016-10-11T02:26:22.633Z,0
2016-10-11T02:27:33.122Z,0
2016-10-11T02:28:43.622Z,0
2016-10-11T02:29:54.679Z,0
2016-10-11T02:31:05.172Z,0
2016-10-11T02:32:15.699Z,0
2016-10-11T02:33:26.189Z,0
2016-10-11T02:34:36.693Z,0
2016-10-11T02:35:47.200Z,0
2016-10-11T02:36:57.745Z,0
2016-10-11T02:38:08.276Z,0
2016-10-11T02:39:18.815Z,0
2016-10-11T02:40:29.349Z,0
2016-10-11T02:41:40.014Z,0
2016-10-11T02:42:50.538Z,0
2016-10-11T02:44:01.104Z,0
2016-10-11T02:45:11.610Z,0
2016-10-11T02:46:22.114Z,0
2016-10-11T02:47:32.719Z,0
2016-10-11T02:48:43.206Z,0
2016-10-11T02:49:53.741Z,0
2016-10-11T02:51:04.256Z,0
2016-10-11T02:52:14.776Z,0
2016-10-11T02:53:25.769Z,0
2016-10-11T02:54:36.261Z,0
2016-10-11T02:55:46.784Z,0
2016-10-11T02:56:57.301Z,0
2016-10-11T02:58:07.820Z,0
2016-10-11T02:59:18.341Z,0
2016-10-11T03:00:28.819Z,0
2016-10-11T03:01:39.296Z,0
2016-10-11T03:02:49.811Z,0
2016-10-11T03:04:00.293Z,0
2016-10-11T03:05:10.905Z,0
2016-10-11T03:06:21.399Z,0
2016-10-11T03:07:32.301Z,0
2016-10-11T03:08:43.301Z,0
2016-10-11T03:09:53.825Z,0
2016-10-11T03:11:04.419Z,0
2016-10-11T03:12:14.888Z,0
2016-10-11T03:13:25.429Z,0
2016-10-11T03:14:35.968Z,0
2016-10-11T03:15:46.883Z,0
2016-10-11T03:16:57.364Z,0
2016-10-11T03:18:07.853Z,0
2016-10-11T03:19:18.376Z,0
2016-10-11T03:20:28.883Z,0
2016-10-11T03:21:39.421Z,0
2016-10-11T03:22:50.078Z,0
2016-10-11T03:24:00.624Z,0
2016-10-11T03:25:11.144Z,0
2016-10-11T03:26:22.069Z,0
2016-10-11T03:27:32.579Z,0
2016-10-11T03:28:43.176Z,0
2016-10-11T03:29:53.698Z,0
2016-10-11T03:31:05.125Z,0
2016-10-11T03:32:15.653Z,0
2016-10-11T03:33:26.209Z,0
2016-10-11T03:34:36.879Z,0
2016-10-11T03:35:47.881Z,0
2016-10-11T03:36:58.921Z,0
2016-10-11T03:38:09.445Z,0
2016-10-11T03:39:19.975Z,0
2016-10-11T03:40:30.490Z,0
2016-10-11T03:41:40.998Z,0
2016-10-11T03:42:51.982Z,0
2016-10-11T03:44:02.497Z,0
2016-10-11T03:45:12.999Z,0
2016-10-11T03:46:23.703Z,0
2016-10-11T03:47:34.214Z,0
2016-10-11T03:48:44.708Z,0
2016-10-11T03:49:55.688Z,0
2016-10-11T03:51:06.667Z,0
2016-10-11T03:52:17.722Z,0
2016-10-11T03:53:28.733Z,0
2016-10-11T03:54:39.211Z,0
2016-10-11T03:55:49.680Z,0
2016-10-11T03:57:00.164Z,0
2016-10-11T03:58:10.652Z,0
2016-10-11T03:59:22.177Z,0
2016-10-11T04:00:33.170Z,0
2016-10-11T04:01:44.192Z,0
2016-10-11T04:02:54.739Z,0
2016-10-11T04:04:05.353Z,0
2016-10-11T04:05:15.875Z,0
2016-10-11T04:06:26.824Z,0
2016-10-11T04:07:37.353Z,0
2016-10-11T04:08:48.334Z,0
2016-10-11T04:09:58.938Z,0
2016-10-11T04:11:09.898Z,0
2016-10-11T04:12:20.416Z,0
2016-10-11T04:13:31.368Z,0
2016-10-11T04:14:42.259Z,0
2016-10-11T04:15:52.845Z,0
2016-10-11T04:17:03.395Z,0
2016-10-11T04:18:13.938Z,0
2016-10-11T04:19:24.914Z,0
2016-10-11T04:20:35.391Z,0
2016-10-11T04:21:45.972Z,0
2016-10-11T04:22:56.491Z,0
2016-10-11T04:24:07.458Z,0
2016-10-11T04:25:17.979Z,0
2016-10-11T04:26:28.477Z,0
2016-10-11T04:27:40.047Z,0
2016-10-11T04:28:50.583Z,0
2016-10-11T04:30:01.066Z,0
2016-10-11T04:31:12.573Z,0
2016-10-11T04:32:23.513Z,0
2016-10-11T04:33:34.380Z,0
2016-10-11T04:34:44.944Z,0
2016-10-11T04:35:55.971Z,0
2016-10-11T04:37:06.464Z,0
2016-10-11T04:38:17.030Z,0
2016-10-11T04:39:27.713Z,0
2016-10-11T04:40:38.696Z,0
2016-10-11T04:41:49.211Z,0
2016-10-11T04:42:59.742Z,0
2016-10-11T04:44:10.778Z,0
2016-10-11T04:45:21.919Z,0
2016-10-11T04:46:32.451Z,0
2016-10-11T04:47:43.030Z,0
2016-10-11T04:48:54.103Z,0
2016-10-11T04:50:05.130Z,0
2016-10-11T04:51:15.767Z,0
2016-10-11T04:52:26.736Z,0
2016-10-11T04:53:37.720Z,0
2016-10-11T04:54:48.786Z,0
2016-10-11T04:55:59.315Z,0
2016-10-11T04:57:09.943Z,0
2016-10-11T04:58:20.488Z,0
2016-10-11T04:59:31.008Z,0
2016-10-11T05:00:42.086Z,0
2016-10-11T05:01:53.639Z,0
2016-10-11T05:03:04.295Z,0
2016-10-11T05:04:14.852Z,0
2016-10-11T05:05:25.369Z,0
2016-10-11T05:06:35.896Z,0
2016-10-11T05:07:46.421Z,0
2016-10-11T05:08:57.595Z,0
2016-10-11T05:10:08.097Z,0
2016-10-11T05:11:18.964Z,0
2016-10-11T05:12:29.461Z,0
2016-10-11T05:13:39.921Z,0
2016-10-11T05:14:50.802Z,0
2016-10-11T05:16:01.285Z,0
2016-10-11T05:17:11.788Z,0
2016-10-11T05:18:22.258Z,0
2016-10-11T05:19:32.785Z,0
2016-10-11T05:20:43.459Z,0
2016-10-11T05:21:54.401Z,0
2016-10-11T05:23:04.958Z,0
2016-10-11T05:24:15.821Z,0
2016-10-11T05:25:26.308Z,0
2016-10-11T05:26:36.930Z,0
2016-10-11T05:27:47.402Z,0
2016-10-11T05:28:57.914Z,0
2016-10-11T05:30:08.437Z,0
2016-10-11T05:31:19.347Z,0
2016-10-11T05:32:30.024Z,0
2016-10-11T05:33:40.549Z,0
2016-10-11T05:34:51.062Z,0
2016-10-11T05:36:01.595Z,0
2016-10-11T05:37:12.123Z,0
2016-10-11T05:38:23.037Z,0
2016-10-11T05:39:33.577Z,0
2016-10-11T05:40:44.100Z,0
2016-10-11T05:41:54.611Z,0
2016-10-11T05:43:05.141Z,0
2016-10-11T05:44:15.784Z,0
2016-10-11T05:45:26.323Z,0
2016-10-11T05:46:37.351Z,0
2016-10-11T05:47:47.914Z,0
2016-10-11T05:48:58.398Z,0
2016-10-11T05:50:09.006Z,0
2016-10-11T05:51:19.475Z,0
2016-10-11T05:52:30.002Z,0
2016-10-11T05:53:40.527Z,0
2016-10-11T05:54:51.060Z,0
2016-10-11T05:56:01.729Z,0
2016-10-11T05:57:12.265Z,0
2016-10-11T05:58:22.802Z,0
2016-10-11T05:59:33.263Z,0
2016-10-11T06:00:43.789Z,0
2016-10-11T06:01:54.511Z,0
2016-10-11T06:03:04.979Z,0
2016-10-11T06:04:15.478Z,0
2016-10-11T06:05:26.008Z,0
2016-10-11T06:06:36.535Z,0
2016-10-11T06:07:47.162Z,0
2016-10-11T06:08:57.657Z,0
2016-10-11T06:10:08.160Z,0
2016-10-11T06:11:18.686Z,0
2016-10-11T06:12:29.187Z,0
2016-10-11T06:13:40.206Z,0
2016-10-11T06:14:50.745Z,0
2016-10-11T06:16:01.623Z,0
2016-10-11T06:17:12.102Z,0
2016-10-11T06:18:22.595Z,0
2016-10-11T06:19:33.221Z,0
2016-10-11T06:20:44.139Z,0
2016-10-11T06:21:54.614Z,0
2016-10-11T06:23:05.128Z,0
2016-10-11T06:24:15.628Z,0
2016-10-11T06:25:26.230Z,0
2016-10-11T06:26:36.751Z,0
2016-10-11T06:27:47.254Z,0
2016-10-11T06:28:57.766Z,0
2016-10-11T06:30:08.237Z,0
2016-10-11T06:31:18.838Z,0
2016-10-11T06:32:29.351Z,0
2016-10-11T06:33:39.833Z,0
2016-10-11T06:34:50.296Z,0
2016-10-11T06:36:01.193Z,0
2016-10-11T06:37:11.766Z,0
2016-10-11T06:38:22.262Z,0
2016-10-11T06:39:32.753Z,0
2016-10-11T06:40:43.257Z,0
2016-10-11T06:41:53.736Z,0
2016-10-11T06:43:04.314Z,0
2016-10-11T06:44:14.810Z,0
2016-10-11T06:45:25.354Z,0
2016-10-11T06:46:35.847Z,0
2016-10-11T06:47:46.355Z,0
2016-10-11T06:48:56.901Z,0
2016-10-11T06:50:07.410Z,0
2016-10-11T06:51:17.889Z,0
2016-10-11T06:52:28.377Z,0
2016-10-11T06:53:38.842Z,0
2016-10-11T06:54:49.407Z,0
2016-10-11T06:55:59.865Z,0
2016-10-11T06:57:10.338Z,0
2016-10-11T06:58:20.794Z,0
2016-10-11T06:59:31.272Z,0
2016-10-11T07:00:41.837Z,0
2016-10-11T07:01:52.313Z,0
2016-10-11T07:03:02.771Z,0
2016-10-11T07:04:13.226Z,0
2016-10-11T07:05:23.685Z,0
2016-10-11T07:06:34.255Z,0
2016-10-11T07:07:44.713Z,0
2016-10-11T07:08:55.575Z,0
2016-10-11T07:10:06.037Z,0
2016-10-11T07:11:16.505Z,0
2016-10-11T07:12:27.072Z,0
2016-10-11T07:13:37.545Z,0
2016-10-11T07:14:48.379Z,0
2016-10-11T07:15:58.847Z,0
2016-10-11T07:17:09.720Z,0
2016-10-11T07:18:20.568Z,0
2016-10-11T07:19:31.038Z,0
2016-10-11T07:20:41.517Z,0
2016-10-11T07:21:51.990Z,0
2016-10-11T07:23:02.463Z,0
2016-10-11T07:24:13.030Z,0
2016-10-11T07:25:23.876Z,0
2016-10-11T07:26:34.356Z,0
2016-10-11T07:27:44.910Z,0
2016-10-11T07:28:55.469Z,0
2016-10-11T07:30:06.109Z,0
2016-10-11T07:31:16.686Z,0
2016-10-11T07:32:27.247Z,0
2016-10-11T07:33:37.749Z,0
2016-10-11T07:34:48.288Z,0
2016-10-11T07:35:58.920Z,0
2016-10-11T07:37:09.506Z,0
2016-10-11T07:38:20.030Z,0
2016-10-11T07:39:30.921Z,0
2016-10-11T07:40:41.448Z,0
2016-10-11T07:41:51.999Z,0
2016-10-11T07:43:03.012Z,0
2016-10-11T07:44:13.576Z,0
2016-10-11T07:45:24.117Z,0
2016-10-11T07:46:34.592Z,0
2016-10-11T07:47:45.239Z,0
2016-10-11T07:48:56.307Z,0
2016-10-11T07:50:06.842Z,0
2016-10-11T07:51:17.762Z,0
2016-10-11T07:52:28.306Z,0
2016-10-11T07:53:38.961Z,0
2016-10-11T07:54:49.533Z,0
2016-10-11T07:56:00.119Z,0
2016-10-11T07:57:10.640Z,0
2016-10-11T07:58:21.178Z,0
2016-10-11T07:59:31.813Z,0
2016-10-11T08:00:42.417Z,0
2016-10-11T08:01:53.007Z,0
2016-10-11T08:03:03.584Z,0
2016-10-11T08:04:14.186Z,0
2016-10-11T08:05:25.163Z,0
2016-10-11T08:06:35.750Z,0
2016-10-11T08:07:46.339Z,0
2016-10-11T08:08:56.932Z,0
2016-10-11T08:10:07.518Z,0
2016-10-11T08:11:18.199Z,0
2016-10-11T08:12:28.782Z,0
2016-10-11T08:13:39.365Z,0
2016-10-11T08:14:49.949Z,4
2016-10-11T08:16:00.539Z,0
2016-10-11T08:17:11.231Z,4
2016-10-11T08:18:21.812Z,0
2016-10-11T08:19:32.389Z,4
2016-10-11T08:20:43.473Z,4
2016-10-11T08:21:54.062Z,12
2016-10-11T08:23:05.137Z,16
2016-10-11T08:24:15.721Z,20
2016-10-11T08:25:26.312Z,20
2016-10-11T08:26:36.906Z,28
2016-10-11T08:27:47.482Z,36
2016-10-11T08:28:58.066Z,48
2016-10-11T08:30:08.660Z,52
2016-10-11T08:31:19.247Z,64
2016-10-11T08:32:29.840Z,80
2016-10-11T08:33:40.435Z,104
2016-10-11T08:34:51.132Z,120
2016-10-11T08:36:01.720Z,156
2016-10-11T08:37:12.317Z,180
2016-10-11T08:38:22.899Z,200
2016-10-11T08:39:33.480Z,244
2016-10-11T08:40:44.170Z,272
2016-10-11T08:41:54.760Z,300
2016-10-11T08:43:05.347Z,328
2016-10-11T08:44:15.939Z,348
2016-10-11T08:45:26.548Z,424
2016-10-11T08:46:37.625Z,468
2016-10-11T08:47:48.221Z,496
2016-10-11T08:48:58.809Z,544
2016-10-11T08:50:09.391Z,564
2016-10-11T08:51:20.472Z,592
2016-10-11T08:52:31.065Z,620
2016-10-11T08:53:41.639Z,676
2016-10-11T08:54:52.230Z,752
2016-10-11T08:56:02.821Z,828
2016-10-11T08:57:13.404Z,904
2016-10-11T08:58:24.091Z,908
2016-10-11T08:59:34.683Z,968
2016-10-11T09:00:45.285Z,1040
2016-10-11T09:01:55.859Z,1104
2016-10-11T09:03:06.444Z,1144
2016-10-11T09:04:17.519Z,1140
2016-10-11T09:05:28.496Z,1172
2016-10-11T09:06:39.089Z,1228
2016-10-11T09:07:49.673Z,1312
2016-10-11T09:09:00.259Z,1820
2016-10-11T09:10:10.970Z,1960
2016-10-11T09:11:21.551Z,1656
2016-10-11T09:12:32.138Z,1868
2016-10-11T09:13:42.744Z,1824
2016-10-11T09:14:54.101Z,1840
2016-10-11T09:16:04.699Z,1820
2016-10-11T09:17:15.293Z,2032
2016-10-11T09:18:26.273Z,2060
2016-10-11T09:19:37.259Z,2132
2016-10-11T09:20:47.855Z,2256
2016-10-11T09:21:58.549Z,2372
2016-10-11T09:23:09.141Z,2368
2016-10-11T09:24:19.728Z,2404
2016-10-11T09:25:30.705Z,2360
2016-10-11T09:26:41.289Z,2360
2016-10-11T09:27:51.986Z,2556
2016-10-11T09:29:02.586Z,2556
2016-10-11T09:30:13.252Z,2648
2016-10-11T09:31:23.835Z,2468
2016-10-11T09:32:34.424Z,2064
2016-10-11T09:33:45.119Z,2104
2016-10-11T09:34:55.741Z,2492
2016-10-11T09:36:06.331Z,2600
2016-10-11T09:37:16.938Z,2888
2016-10-11T09:38:27.529Z,2980
2016-10-11T09:39:38.116Z,3032
2016-10-11T09:40:48.700Z,3044
2016-10-11T09:41:59.286Z,2988
2016-10-11T09:43:09.884Z,3116
2016-10-11T09:44:20.472Z,3292
2016-10-11T09:45:31.158Z,3480
2016-10-11T09:46:41.746Z,3612
2016-10-11T09:47:52.332Z,3820
2016-10-11T09:49:02.923Z,3928
2016-10-11T09:50:13.505Z,4368
2016-10-11T09:51:24.200Z,4772
2016-10-11T09:52:34.798Z,5904
2016-10-11T09:53:45.878Z,6596
2016-10-11T09:54:56.452Z,6196
2016-10-11T09:56:07.043Z,5944
2016-10-11T09:57:17.723Z,5240
2016-10-11T09:58:28.307Z,5492
2016-10-11T09:59:38.899Z,6116
2016-10-11T10:00:49.983Z,6232
2016-10-11T10:02:00.956Z,6612
2016-10-11T10:03:12.154Z,6936
2016-10-11T10:04:22.735Z,7424
2016-10-11T10:05:33.337Z,7408
2016-10-11T10:06:43.921Z,6700
2016-10-11T10:07:54.515Z,5996
2016-10-11T10:09:05.202Z,6080
2016-10-11T10:10:15.785Z,6992
2016-10-11T10:11:26.370Z,7336
2016-10-11T10:12:36.958Z,6948
2016-10-11T10:13:47.546Z,6776
2016-10-11T10:14:58.240Z,6856
2016-10-11T10:16:08.821Z,6788
2016-10-11T10:17:19.808Z,6692
2016-10-11T10:18:30.393Z,6956
2016-10-11T10:19:40.980Z,8512
2016-10-11T10:20:51.678Z,9128
2016-10-11T10:22:02.273Z,9324
2016-10-11T10:23:12.865Z,10016
2016-10-11T10:24:23.457Z,9700
2016-10-11T10:25:34.052Z,8780
2016-10-11T10:26:44.733Z,8952
2016-10-11T10:27:55.320Z,8988
2016-10-11T10:29:05.912Z,8912
2016-10-11T10:30:16.496Z,9588
2016-10-11T10:31:27.078Z,9672
2016-10-11T10:32:37.770Z,8528
2016-10-11T10:33:48.357Z,7960
2016-10-11T10:34:58.943Z,8620
2016-10-11T10:36:09.529Z,9600
2016-10-11T10:37:20.115Z,11760
2016-10-11T10:38:30.917Z,12344
2016-10-11T10:39:41.515Z,11848
2016-10-11T10:40:52.111Z,12028
2016-10-11T10:42:02.710Z,11932
2016-10-11T10:43:13.299Z,11320
2016-10-11T10:44:23.989Z,11280
2016-10-11T10:45:34.581Z,11464
2016-10-11T10:46:45.180Z,12688
2016-10-11T10:47:55.776Z,13384
2016-10-11T10:49:06.371Z,13812
2016-10-11T10:50:17.441Z,14288
2016-10-11T10:51:28.203Z,13704
2016-10-11T10:52:38.784Z,13120
2016-10-11T10:53:49.370Z,13400
2016-10-11T10:54:59.934Z,13548
2016-10-11T10:56:10.572Z,12784
2016-10-11T10:57:21.100Z,12844
2016-10-11T10:58:31.636Z,12404
2016-10-11T10:59:42.152Z,13072
2016-10-11T11:00:52.744Z,13564
2016-10-11T11:02:03.407Z,14864
2016-10-11T11:03:13.980Z,15688
2016-10-11T11:04:24.491Z,16360
2016-10-11T11:05:35.089Z,16028
2016-10-11T11:06:45.631Z,15528
2016-10-11T11:07:56.267Z,17080
2016-10-11T11:09:06.825Z,16776
2016-10-11T11:10:17.349Z,15956
2016-10-11T11:11:27.900Z,15984
2016-10-11T11:12:38.482Z,19040
2016-10-11T11:13:49.223Z,18592
2016-10-11T11:14:59.791Z,17696
2016-10-11T11:16:10.377Z,18592
2016-10-11T11:17:20.932Z,20320
2016-10-11T11:18:31.523Z,24896
2016-10-11T11:19:42.016Z,24928
2016-10-11T11:20:52.529Z,23456
2016-10-11T11:22:03.098Z,22176
2016-10-11T11:23:13.620Z,22624
2016-10-11T11:24:24.569Z,18592
2016-10-11T11:25:35.217Z,20448
2016-10-11T11:26:45.749Z,21888
2016-10-11T11:27:56.795Z,23552
2016-10-11T11:29:07.309Z,25696
2016-10-11T11:30:17.809Z,23200
2016-10-11T11:31:28.478Z,21696
2016-10-11T11:32:38.998Z,21568
2016-10-11T11:33:49.529Z,21504
2016-10-11T11:35:00.018Z,21952
2016-10-11T11:36:10.530Z,25888
2016-10-11T11:37:21.157Z,28064
2016-10-11T11:38:31.649Z,23392
2016-10-11T11:39:42.183Z,23168
2016-10-11T11:40:52.734Z,27776
2016-10-11T11:42:03.349Z,32000
2016-10-11T11:43:14.007Z,40288
2016-10-11T11:44:24.554Z,34304
2016-10-11T11:45:35.058Z,43104
2016-10-11T11:46:45.573Z,70912
2016-10-11T11:47:56.068Z,44672
2016-10-11T11:49:06.639Z,86432
2016-10-11T11:50:17.571Z,39808
2016-10-11T11:51:28.033Z,25888
2016-10-11T11:52:38.523Z,35872
2016-10-11T11:53:49.041Z,37440
2016-10-11T11:54:59.657Z,46720
2016-10-11T11:56:10.128Z,50976
2016-10-11T11:57:21.417Z,42944
2016-10-11T11:58:31.927Z,32960
2016-10-11T11:59:42.426Z,25312
2016-10-11T12:00:53.083Z,24000
2016-10-11T12:02:04.053Z,26880
2016-10-11T12:03:14.582Z,33056
2016-10-11T12:04:25.142Z,34976
2016-10-11T12:05:35.623Z,38912
2016-10-11T12:06:46.217Z,41952
2016-10-11T12:07:57.084Z,37184
2016-10-11T12:09:07.586Z,32192
2016-10-11T12:10:18.123Z,30624
2016-10-11T12:11:29.094Z,28544
2016-10-11T12:12:39.727Z,28256
2016-10-11T12:13:50.272Z,29120
2016-10-11T12:15:00.829Z,31904
2016-10-11T12:16:11.335Z,35392
2016-10-11T12:17:21.850Z,32064
2016-10-11T12:18:32.466Z,26656
2016-10-11T12:19:42.951Z,24160
2016-10-11T12:20:53.443Z,23744
2016-10-11T12:22:03.980Z,24352
2016-10-11T12:23:14.459Z,25568
2016-10-11T12:24:25.075Z,25536
2016-10-11T12:25:35.595Z,24832
2016-10-11T12:26:46.105Z,25280
2016-10-11T12:27:56.596Z,26304
2016-10-11T12:29:07.480Z,27008
2016-10-11T12:30:18.078Z,27200
2016-10-11T12:31:28.574Z,28160
2016-10-11T12:32:39.089Z,31520
2016-10-11T12:33:49.559Z,32480
2016-10-11T12:35:00.102Z,31488
2016-10-11T12:36:10.673Z,31776
2016-10-11T12:37:21.237Z,31168
2016-10-11T12:38:31.811Z,28704
2016-10-11T12:39:42.347Z,26656
2016-10-11T12:40:53.311Z,26304
2016-10-11T12:42:03.947Z,26816
2016-10-11T12:43:14.504Z,27136
2016-10-11T12:44:25.062Z,28064
2016-10-11T12:45:35.595Z,29472
2016-10-11T12:46:46.106Z,30240
2016-10-11T12:47:56.870Z,30784
2016-10-11T12:49:07.420Z,32480
2016-10-11T12:50:17.971Z,34496
2016-10-11T12:51:28.528Z,36416
2016-10-11T12:52:39.113Z,42240
2016-10-11T12:53:50.204Z,46112
2016-10-11T12:55:01.151Z,42688
2016-10-11T12:56:11.631Z,36288
2016-10-11T12:57:22.575Z,30272
2016-10-11T12:58:33.115Z,26656
2016-10-11T12:59:43.955Z,24256
2016-10-11T13:00:54.496Z,22976
2016-10-11T13:02:05.403Z,23072
2016-10-11T13:03:15.972Z,24224
2016-10-11T13:04:26.552Z,25504
2016-10-11T13:05:37.204Z,26752
2016-10-11T13:06:47.715Z,28064
2016-10-11T13:07:58.302Z,28864
2016-10-11T13:09:08.890Z,29664
2016-10-11T13:10:19.460Z,32032
2016-10-11T13:11:30.156Z,37728
2016-10-11T13:12:40.734Z,43008
2016-10-11T13:13:51.329Z,46368
2016-10-11T13:15:01.930Z,45088
2016-10-11T13:16:13.223Z,40896
2016-10-11T13:17:23.926Z,37504
2016-10-11T13:18:34.521Z,34240
2016-10-11T13:19:45.111Z,31904
2016-10-11T13:20:55.700Z,30432
2016-10-11T13:22:07.181Z,30176
2016-10-11T13:23:17.887Z,30976
2016-10-11T13:24:28.486Z,32800
2016-10-11T13:25:39.476Z,34176
2016-10-11T13:26:50.064Z,35360
2016-10-11T13:28:00.655Z,37184
2016-10-11T13:29:11.452Z,40512
2016-10-11T13:30:22.052Z,43808
2016-10-11T13:31:32.634Z,45600
2016-10-11T13:32:43.214Z,45952
2016-10-11T13:33:53.810Z,46752
2016-10-11T13:35:04.897Z,46880
2016-10-11T13:36:15.503Z,43616
2016-10-11T13:37:26.103Z,39840
2016-10-11T13:38:36.684Z,38112
2016-10-11T13:39:47.279Z,36736
2016-10-11T13:40:58.362Z,34976
2016-10-11T13:42:08.949Z,34784
2016-10-11T13:43:19.538Z,36224
2016-10-11T13:44:30.132Z,37856
2016-10-11T13:45:40.697Z,39200
2016-10-11T13:46:51.345Z,40672
2016-10-11T13:48:01.895Z,42208
2016-10-11T13:49:12.473Z,44320
2016-10-11T13:50:24.338Z,47712
2016-10-11T13:51:34.882Z,56064
2016-10-11T13:52:45.554Z,50304
2016-10-11T13:53:56.082Z,51552
2016-10-11T13:55:06.608Z,48544
2016-10-11T13:56:17.570Z,47968
2016-10-11T13:57:28.860Z,46816
2016-10-11T13:58:39.561Z,44608
2016-10-11T13:59:50.114Z,41024
2016-10-11T14:01:00.916Z,39200
2016-10-11T14:02:11.474Z,36576
2016-10-11T14:03:22.438Z,34272
2016-10-11T14:04:33.172Z,33600
2016-10-11T14:05:43.730Z,34048
2016-10-11T14:06:54.298Z,35424
2016-10-11T14:08:04.906Z,38080
2016-10-11T14:09:15.478Z,42112
2016-10-11T14:10:26.117Z,45344
2016-10-11T14:11:36.657Z,48512
2016-10-11T14:12:47.238Z,50816
2016-10-11T14:13:57.831Z,49024
2016-10-11T14:15:08.392Z,42976
2016-10-11T14:16:19.064Z,36992
2016-10-11T14:17:29.633Z,32832
2016-10-11T14:18:40.220Z,30240
2016-10-11T14:19:50.804Z,29152
2016-10-11T14:21:01.395Z,29696
2016-10-11T14:22:12.102Z,31328
2016-10-11T14:23:22.701Z,32992
2016-10-11T14:24:33.289Z,34304
2016-10-11T14:25:43.879Z,35808
2016-10-11T14:26:54.477Z,37728
2016-10-11T14:28:05.418Z,40416
2016-10-11T14:29:16.013Z,44736
2016-10-11T14:30:26.616Z,51744
2016-10-11T14:31:37.227Z,66400
2016-10-11T14:32:47.831Z,88544
2016-10-11T14:33:58.625Z,73152
2016-10-11T14:35:09.716Z,59360
2016-10-11T14:36:20.311Z,58592
2016-10-11T14:37:30.931Z,53696
2016-10-11T14:38:41.523Z,48224
2016-10-11T14:39:52.377Z,42528
2016-10-11T14:41:02.987Z,38848
2016-10-11T14:42:13.594Z,36576
2016-10-11T14:43:24.182Z,35424
2016-10-11T14:44:34.772Z,35296
2016-10-11T14:45:45.461Z,35840
2016-10-11T14:46:56.458Z,37728
2016-10-11T14:48:07.063Z,41856
2016-10-11T14:49:17.653Z,47392
2016-10-11T14:50:28.758Z,52576
2016-10-11T14:51:39.495Z,66752
2016-10-11T14:52:50.084Z,79904
2016-10-11T14:54:00.687Z,72992
2016-10-11T14:55:11.213Z,59072
2016-10-11T14:56:21.782Z,53984
2016-10-11T14:57:32.461Z,53056
2016-10-11T14:58:43.004Z,52352
2016-10-11T14:59:53.545Z,54528
2016-10-11T15:01:04.481Z,50272
2016-10-11T15:02:15.053Z,55520
2016-10-11T15:03:25.764Z,49248
2016-10-11T15:04:36.293Z,46144
2016-10-11T15:05:46.862Z,43680
2016-10-11T15:06:57.408Z,40448
2016-10-11T15:08:07.950Z,41728
2016-10-11T15:09:18.570Z,46464
2016-10-11T15:10:29.132Z,38912
2016-10-11T15:11:39.691Z,36224
2016-10-11T15:12:50.290Z,45024
2016-10-11T15:14:00.836Z,45056
2016-10-11T15:15:11.516Z,46080
2016-10-11T15:16:22.048Z,45664
2016-10-11T15:17:32.596Z,42016
2016-10-11T15:18:43.551Z,35392
2016-10-11T15:19:54.122Z,32576
2016-10-11T15:21:06.425Z,34752
2016-10-11T15:22:17.014Z,38560
2016-10-11T15:23:27.565Z,48096
2016-10-11T15:24:38.141Z,93600
2016-10-11T15:25:49.112Z,73920
2016-10-11T15:27:00.244Z,65472
2016-10-11T15:28:10.816Z,91328
2016-10-11T15:29:21.389Z,88832
2016-10-11T15:30:32.346Z,88992
2016-10-11T15:31:42.853Z,94656
2016-10-11T15:32:54.018Z,93312
2016-10-11T15:34:04.561Z,56512
2016-10-11T15:35:15.087Z,51552
2016-10-11T15:36:25.660Z,31520
2016-10-11T15:37:36.201Z,28128
2016-10-11T15:38:46.991Z,29440
2016-10-11T15:39:57.973Z,33376
2016-10-11T15:41:08.501Z,34368
2016-10-11T15:42:19.104Z,48736
2016-10-11T15:43:29.996Z,78368
2016-10-11T15:44:40.650Z,81472
2016-10-11T15:45:51.632Z,73152
2016-10-11T15:47:02.231Z,81728
2016-10-11T15:48:12.788Z,82592
2016-10-11T15:49:23.278Z,80992
2016-10-11T15:50:33.935Z,68160
2016-10-11T15:51:44.486Z,81152
2016-10-11T15:52:55.064Z,83488
2016-10-11T15:54:05.631Z,81632
2016-10-11T15:55:16.189Z,62304
2016-10-11T15:56:26.890Z,86176
2016-10-11T15:57:37.450Z,81728
2016-10-11T15:58:48.053Z,81280
2016-10-11T15:59:58.639Z,77952
2016-10-11T16:01:09.157Z,76640
2016-10-11T16:02:19.802Z,74528
2016-10-11T16:03:30.300Z,77152
2016-10-11T16:04:40.882Z,76352
2016-10-11T16:05:51.458Z,77120
2016-10-11T16:07:02.035Z,74240
2016-10-11T16:08:13.220Z,75488
2016-10-11T16:09:23.750Z,63456
2016-10-11T16:10:34.297Z,43808
2016-10-11T16:11:44.795Z,47680
2016-10-11T16:12:55.337Z,64896
2016-10-11T16:14:06.053Z,65792
2016-10-11T16:15:16.964Z,70304
2016-10-11T16:16:27.971Z,69440
2016-10-11T16:17:39.011Z,64544
2016-10-11T16:18:49.524Z,63616
2016-10-11T16:20:00.258Z,71104